createdAt,value
2022-09-12T00:00:02.772Z,1016.15
2022-09-12T00:00:12.176Z,1016.12
2022-09-12T00:00:21.644Z,1016.14
2022-09-12T00:00:31.059Z,1016.15
2022-09-12T00:00:40.492Z,1016.22
2022-09-12T00:00:49.934Z,1016.16
2022-09-12T00:00:59.351Z,1016.15
2022-09-12T00:01:08.771Z,1016.24
2022-09-12T00:01:18.208Z,1016.21
2022-09-12T00:01:36.980Z,1016.13
2022-09-12T00:01:46.345Z,1016.17
2022-09-12T00:01:55.770Z,1016.16
2022-09-12T00:02:05.200Z,1016.21
2022-09-12T00:02:14.604Z,1016.20
2022-09-12T00:02:23.997Z,1016.20
2022-09-12T00:02:33.388Z,1016.17
2022-09-12T00:02:42.826Z,1016.20
2022-09-12T00:02:52.244Z,1016.22
2022-09-12T00:03:01.650Z,1016.18
2022-09-12T00:03:11.097Z,1016.18
2022-09-12T00:03:20.504Z,1016.25
2022-09-12T00:03:29.916Z,1016.22
2022-09-12T00:03:39.331Z,1016.17
2022-09-12T00:03:48.733Z,1016.16
2022-09-12T00:03:58.144Z,1016.24
2022-09-12T00:04:16.980Z,1016.20
2022-09-12T00:04:26.404Z,1016.24
2022-09-12T00:04:35.816Z,1016.20
2022-09-12T00:04:45.242Z,1016.22
2022-09-12T00:04:54.664Z,1016.20
2022-09-12T00:05:04.077Z,1016.20
2022-09-12T00:05:13.478Z,1016.19
2022-09-12T00:05:23.417Z,1016.23
2022-09-12T00:05:32.840Z,1016.23
2022-09-12T00:05:42.268Z,1016.17
2022-09-12T00:05:51.669Z,1016.15
2022-09-12T00:06:01.073Z,1016.19
2022-09-12T00:06:10.489Z,1016.20
2022-09-12T00:06:22.866Z,1016.15
2022-09-12T00:06:29.399Z,1016.19
2022-09-12T00:06:38.816Z,1016.17
2022-09-12T00:06:48.246Z,1016.26
2022-09-12T00:07:07.098Z,1016.20
2022-09-12T00:07:16.506Z,1016.16
2022-09-12T00:07:25.919Z,1016.21
2022-09-12T00:07:35.360Z,1016.24
2022-09-12T00:07:44.776Z,1016.23
2022-09-12T00:07:54.184Z,1016.21
2022-09-12T00:08:03.599Z,1016.22
2022-09-12T00:08:13.019Z,1016.21
2022-09-12T00:08:22.420Z,1016.22
2022-09-12T00:08:31.846Z,1016.22
2022-09-12T00:08:41.319Z,1016.15
2022-09-12T00:08:50.688Z,1016.20
2022-09-12T00:09:00.112Z,1016.20
2022-09-12T00:09:09.542Z,1016.15
2022-09-12T00:09:18.969Z,1016.20
2022-09-12T00:09:28.444Z,1016.21
2022-09-12T00:09:47.255Z,1016.12
2022-09-12T00:09:57.447Z,1016.23
2022-09-12T00:10:06.851Z,1016.23
2022-09-12T00:10:16.588Z,1016.18
2022-09-12T00:10:26.018Z,1016.14
2022-09-12T00:10:35.428Z,1016.16
2022-09-12T00:10:44.834Z,1016.21
2022-09-12T00:10:54.252Z,1016.21
2022-09-12T00:11:03.684Z,1016.16
2022-09-12T00:11:13.123Z,1016.20
2022-09-12T00:11:22.526Z,1016.19
2022-09-12T00:11:32.342Z,1016.14
2022-09-12T00:11:41.772Z,1016.14
2022-09-12T00:11:51.195Z,1016.14
2022-09-12T00:12:00.605Z,1016.21
2022-09-12T00:12:10.040Z,1016.13
2022-09-12T00:12:19.468Z,1016.17
2022-09-12T00:12:28.913Z,1016.13
2022-09-12T00:12:38.314Z,1016.21
2022-09-12T00:12:57.142Z,1016.12
2022-09-12T00:13:06.566Z,1016.14
2022-09-12T00:13:15.991Z,1016.09
2022-09-12T00:13:25.401Z,1016.14
2022-09-12T00:13:37.309Z,1016.11
2022-09-12T00:13:44.215Z,1016.16
2022-09-12T00:13:53.642Z,1016.08
2022-09-12T00:14:03.079Z,1016.18
2022-09-12T00:14:13.343Z,1016.14
2022-09-12T00:14:22.755Z,1016.14
2022-09-12T00:14:32.203Z,1016.11
2022-09-12T00:14:41.624Z,1016.11
2022-09-12T00:14:51.104Z,1016.16
2022-09-12T00:15:00.510Z,1016.10
2022-09-12T00:15:09.927Z,1016.15
2022-09-12T00:15:19.346Z,1016.19
2022-09-12T00:15:28.766Z,1016.14
2022-09-12T00:15:38.152Z,1016.11
2022-09-12T00:15:57.032Z,1016.14
2022-09-12T00:16:06.493Z,1016.15
2022-09-12T00:16:15.934Z,1016.16
2022-09-12T00:16:25.310Z,1016.15
2022-09-12T00:16:34.733Z,1016.12
2022-09-12T00:16:44.199Z,1016.18
2022-09-12T00:16:53.484Z,1016.15
2022-09-12T00:17:02.875Z,1016.20
2022-09-12T00:17:12.294Z,1016.11
2022-09-12T00:17:21.682Z,1016.11
2022-09-12T00:17:31.085Z,1016.17
2022-09-12T00:17:40.482Z,1016.09
2022-09-12T00:17:49.901Z,1016.18
2022-09-12T00:17:59.310Z,1016.21
2022-09-12T00:18:08.712Z,1016.16
2022-09-12T00:18:18.124Z,1016.17
2022-09-12T00:18:36.924Z,1016.16
2022-09-12T00:18:46.607Z,1016.16
2022-09-12T00:18:55.722Z,1016.17
2022-09-12T00:19:05.135Z,1016.15
2022-09-12T00:19:14.603Z,1016.12
2022-09-12T00:19:24.022Z,1016.14
2022-09-12T00:19:33.440Z,1016.18
2022-09-12T00:19:42.859Z,1016.19
2022-09-12T00:19:52.270Z,1016.16
2022-09-12T00:20:01.668Z,1016.19
2022-09-12T00:20:11.088Z,1016.15
2022-09-12T00:20:20.500Z,1016.21
2022-09-12T00:20:29.933Z,1016.15
2022-09-12T00:20:39.411Z,1016.19
2022-09-12T00:20:48.837Z,1016.13
2022-09-12T00:20:58.241Z,1016.18
2022-09-12T00:21:17.068Z,1016.18
2022-09-12T00:21:26.469Z,1016.14
2022-09-12T00:21:35.880Z,1016.20
2022-09-12T00:21:45.291Z,1016.18
2022-09-12T00:21:54.717Z,1016.16
2022-09-12T00:22:04.150Z,1016.20
2022-09-12T00:22:13.554Z,1016.10
2022-09-12T00:22:22.978Z,1016.14
2022-09-12T00:22:32.393Z,1016.15
2022-09-12T00:22:41.848Z,1016.15
2022-09-12T00:22:51.313Z,1016.15
2022-09-12T00:23:00.734Z,1016.09
2022-09-12T00:23:10.181Z,1016.12
2022-09-12T00:23:19.628Z,1016.16
2022-09-12T00:23:29.063Z,1016.15
2022-09-12T00:23:38.487Z,1016.19
2022-09-12T00:23:57.365Z,1016.16
2022-09-12T00:24:06.776Z,1016.14
2022-09-12T00:24:16.193Z,1016.16
2022-09-12T00:24:25.574Z,1016.15
2022-09-12T00:24:34.978Z,1016.17
2022-09-12T00:24:44.390Z,1016.21
2022-09-12T00:24:53.873Z,1016.22
2022-09-12T00:25:03.291Z,1016.16
2022-09-12T00:25:12.693Z,1016.16
2022-09-12T00:25:22.087Z,1016.16
2022-09-12T00:25:31.473Z,1016.17
2022-09-12T00:25:40.882Z,1016.18
2022-09-12T00:25:50.276Z,1016.18
2022-09-12T00:25:59.696Z,1016.20
2022-09-12T00:26:09.145Z,1016.19
2022-09-12T00:26:18.551Z,1016.23
2022-09-12T00:26:27.966Z,1016.19
2022-09-12T00:26:46.824Z,1016.18
2022-09-12T00:26:56.216Z,1016.22
2022-09-12T00:27:05.607Z,1016.14
2022-09-12T00:27:15.023Z,1016.17
2022-09-12T00:27:24.529Z,1016.16
2022-09-12T00:27:33.923Z,1016.15
2022-09-12T00:27:43.342Z,1016.18
2022-09-12T00:27:52.748Z,1016.18
2022-09-12T00:28:02.144Z,1016.16
2022-09-12T00:28:11.582Z,1016.09
2022-09-12T00:28:21.003Z,1016.05
2022-09-12T00:28:30.394Z,1016.16
2022-09-12T00:28:39.792Z,1016.07
2022-09-12T00:28:49.186Z,1016.12
2022-09-12T00:28:58.604Z,1016.08
2022-09-12T00:29:08.002Z,1016.04
2022-09-12T00:29:26.851Z,1016.07
2022-09-12T00:29:36.251Z,1016.13
2022-09-12T00:29:45.641Z,1016.09
2022-09-12T00:29:55.044Z,1016.12
2022-09-12T00:30:04.455Z,1016.06
2022-09-12T00:30:13.876Z,1016.12
2022-09-12T00:30:23.291Z,1016.07
2022-09-12T00:30:32.758Z,1016.11
2022-09-12T00:30:42.178Z,1016.09
2022-09-12T00:30:51.607Z,1016.09
2022-09-12T00:31:01.028Z,1016.12
2022-09-12T00:31:10.445Z,1016.08
2022-09-12T00:31:19.882Z,1016.11
2022-09-12T00:31:29.434Z,1016.09
2022-09-12T00:31:38.716Z,1016.07
2022-09-12T00:31:48.099Z,1016.09
2022-09-12T00:32:06.890Z,1016.12
2022-09-12T00:32:16.328Z,1016.16
2022-09-12T00:32:25.734Z,1016.09
2022-09-12T00:32:35.144Z,1016.07
2022-09-12T00:32:44.548Z,1016.01
2022-09-12T00:32:53.974Z,1016.03
2022-09-12T00:33:03.389Z,1016.10
2022-09-12T00:33:12.774Z,1016.06
2022-09-12T00:33:22.177Z,1016.11
2022-09-12T00:33:31.584Z,1016.10
2022-09-12T00:33:40.986Z,1016.08
2022-09-12T00:33:50.411Z,1016.05
2022-09-12T00:33:59.848Z,1016.12
2022-09-12T00:34:09.307Z,1016.13
2022-09-12T00:34:18.757Z,1016.01
2022-09-12T00:34:28.178Z,1016.06
2022-09-12T00:34:47.020Z,1016.05
2022-09-12T00:34:56.428Z,1016.06
2022-09-12T00:35:05.849Z,1016.06
2022-09-12T00:35:15.258Z,1016.03
2022-09-12T00:35:24.671Z,1016.10
2022-09-12T00:35:34.078Z,1016.03
2022-09-12T00:35:43.516Z,1016.04
2022-09-12T00:35:52.917Z,1016.06
2022-09-12T00:36:02.322Z,1016.03
2022-09-12T00:36:11.770Z,1016.06
2022-09-12T00:36:21.170Z,1016.05
2022-09-12T00:36:30.577Z,1016.03
2022-09-12T00:36:39.972Z,1016.07
2022-09-12T00:36:49.395Z,1016.03
2022-09-12T00:36:58.808Z,1015.98
2022-09-12T00:37:08.232Z,1016.05
2022-09-12T00:37:27.069Z,1015.98
2022-09-12T00:37:36.658Z,1016.13
2022-09-12T00:37:46.117Z,1016.13
2022-09-12T00:37:55.510Z,1016.03
2022-09-12T00:38:04.935Z,1016.05
2022-09-12T00:38:14.350Z,1016.04
2022-09-12T00:38:23.763Z,1016.10
2022-09-12T00:38:33.168Z,1016.02
2022-09-12T00:38:42.756Z,1016.11
2022-09-12T00:38:52.047Z,1016.12
2022-09-12T00:39:01.450Z,1016.08
2022-09-12T00:39:11.346Z,1016.04
2022-09-12T00:39:20.749Z,1016.07
2022-09-12T00:39:30.204Z,1016.07
2022-09-12T00:39:39.653Z,1016.09
2022-09-12T00:39:49.022Z,1016.08
2022-09-12T00:39:58.476Z,1016.01
2022-09-12T00:40:17.289Z,1016.05
2022-09-12T00:40:26.634Z,1016.07
2022-09-12T00:40:36.043Z,1016.04
2022-09-12T00:40:45.456Z,1016.01
2022-09-12T00:40:54.863Z,1016.08
2022-09-12T00:41:04.262Z,1016.19
2022-09-12T00:41:13.665Z,1016.06
2022-09-12T00:41:23.075Z,1016.06
2022-09-12T00:41:32.581Z,1016.11
2022-09-12T00:41:41.976Z,1016.13
2022-09-12T00:41:51.430Z,1016.16
2022-09-12T00:42:00.839Z,1016.03
2022-09-12T00:42:10.361Z,1016.01
2022-09-12T00:42:19.781Z,1016.02
2022-09-12T00:42:29.198Z,1016.13
2022-09-12T00:42:38.608Z,1016.09
2022-09-12T00:42:48.061Z,1016.12
2022-09-12T00:43:06.906Z,1016.09
2022-09-12T00:43:16.312Z,1016.11
2022-09-12T00:43:25.720Z,1016.04
2022-09-12T00:43:35.146Z,1016.09
2022-09-12T00:43:44.556Z,1016.05
2022-09-12T00:43:53.952Z,1016.04
2022-09-12T00:44:03.384Z,1016.08
2022-09-12T00:44:12.830Z,1016.06
2022-09-12T00:44:22.237Z,1016.05
2022-09-12T00:44:31.699Z,1016.08
2022-09-12T00:44:41.140Z,1016.08
2022-09-12T00:44:50.529Z,1016.11
2022-09-12T00:44:59.955Z,1016.09
2022-09-12T00:45:09.362Z,1016.10
2022-09-12T00:45:18.768Z,1016.04
2022-09-12T00:45:28.222Z,1016.07
2022-09-12T00:45:47.018Z,1016.05
2022-09-12T00:45:56.477Z,1016.06
2022-09-12T00:46:05.926Z,1016.03
2022-09-12T00:46:15.270Z,1016.03
2022-09-12T00:46:24.666Z,1016.11
2022-09-12T00:46:34.062Z,1016.08
2022-09-12T00:46:43.462Z,1016.07
2022-09-12T00:46:52.875Z,1016.06
2022-09-12T00:47:02.274Z,1016.08
2022-09-12T00:47:11.678Z,1016.04
2022-09-12T00:47:21.110Z,1016.07
2022-09-12T00:47:30.574Z,1016.13
2022-09-12T00:47:39.993Z,1016.13
2022-09-12T00:47:49.406Z,1016.13
2022-09-12T00:47:58.814Z,1016.07
2022-09-12T00:48:08.238Z,1016.08
2022-09-12T00:48:27.112Z,1016.13
2022-09-12T00:48:36.533Z,1016.09
2022-09-12T00:48:46.004Z,1016.12
2022-09-12T00:48:55.352Z,1016.09
2022-09-12T00:49:04.775Z,1016.07
2022-09-12T00:49:14.219Z,1016.11
2022-09-12T00:49:23.606Z,1016.08
2022-09-12T00:49:33.006Z,1016.12
2022-09-12T00:49:42.416Z,1016.07
2022-09-12T00:49:51.814Z,1016.11
2022-09-12T00:50:01.222Z,1016.09
2022-09-12T00:50:10.624Z,1016.10
2022-09-12T00:50:20.054Z,1016.11
2022-09-12T00:50:29.466Z,1016.15
2022-09-12T00:50:38.862Z,1016.14
2022-09-12T00:50:48.263Z,1016.07
2022-09-12T00:51:07.140Z,1016.09
2022-09-12T00:51:16.548Z,1016.09
2022-09-12T00:51:25.987Z,1016.12
2022-09-12T00:51:35.408Z,1016.12
2022-09-12T00:51:44.822Z,1016.11
2022-09-12T00:51:54.245Z,1016.11
2022-09-12T00:52:03.648Z,1016.08
2022-09-12T00:52:13.076Z,1016.17
2022-09-12T00:52:22.512Z,1016.16
2022-09-12T00:52:31.927Z,1016.15
2022-09-12T00:52:41.360Z,1016.13
2022-09-12T00:52:50.828Z,1016.18
2022-09-12T00:53:00.205Z,1016.12
2022-09-12T00:53:09.614Z,1016.11
2022-09-12T00:53:19.023Z,1016.14
2022-09-12T00:53:28.458Z,1016.16
2022-09-12T00:53:47.268Z,1016.14
2022-09-12T00:53:56.674Z,1016.15
2022-09-12T00:54:06.094Z,1016.14
2022-09-12T00:54:15.524Z,1016.10
2022-09-12T00:54:24.946Z,1016.13
2022-09-12T00:54:34.355Z,1016.15
2022-09-12T00:54:43.795Z,1016.08
2022-09-12T00:54:53.253Z,1016.16
2022-09-12T00:55:02.675Z,1016.15
2022-09-12T00:55:12.080Z,1016.11
2022-09-12T00:55:21.512Z,1016.09
2022-09-12T00:55:30.947Z,1016.12
2022-09-12T00:55:40.382Z,1016.18
2022-09-12T00:55:49.784Z,1016.06
2022-09-12T00:55:59.192Z,1016.16
2022-09-12T00:56:08.615Z,1016.20
2022-09-12T00:56:18.027Z,1016.14
2022-09-12T00:56:36.868Z,1016.17
2022-09-12T00:56:46.285Z,1016.12
2022-09-12T00:56:55.708Z,1016.14
2022-09-12T00:57:05.103Z,1016.12
2022-09-12T00:57:14.548Z,1016.05
2022-09-12T00:57:23.951Z,1016.13
2022-09-12T00:57:33.366Z,1016.09
2022-09-12T00:57:42.781Z,1016.13
2022-09-12T00:57:52.197Z,1016.13
2022-09-12T00:58:01.620Z,1016.19
2022-09-12T00:58:11.037Z,1016.16
2022-09-12T00:58:20.476Z,1016.15
2022-09-12T00:58:29.876Z,1016.10
2022-09-12T00:58:39.267Z,1016.17
2022-09-12T00:58:48.667Z,1016.11
2022-09-12T00:58:58.077Z,1016.18
2022-09-12T00:59:16.914Z,1016.10
2022-09-12T00:59:26.305Z,1016.12
2022-09-12T00:59:35.730Z,1016.06
2022-09-12T00:59:45.146Z,1016.10
2022-09-12T00:59:54.546Z,1016.15
2022-09-12T01:00:03.974Z,1016.14
2022-09-12T01:00:13.367Z,1016.22
2022-09-12T01:00:22.779Z,1016.08
2022-09-12T01:00:32.270Z,1016.18
2022-09-12T01:00:41.875Z,1016.14
2022-09-12T01:00:51.129Z,1016.08
2022-09-12T01:01:00.597Z,1016.09
2022-09-12T01:01:10.025Z,1016.15
2022-09-12T01:01:19.477Z,1016.14
2022-09-12T01:01:32.399Z,1016.12
2022-09-12T01:01:38.275Z,1016.19
2022-09-12T01:01:57.212Z,1016.08
2022-09-12T01:02:06.549Z,1016.08
2022-09-12T01:02:15.938Z,1016.13
2022-09-12T01:02:25.339Z,1016.18
2022-09-12T01:02:34.653Z,1016.04
2022-09-12T01:02:44.085Z,1016.08
2022-09-12T01:02:53.498Z,1016.15
2022-09-12T01:03:02.892Z,1016.12
2022-09-12T01:03:12.303Z,1016.07
2022-09-12T01:03:21.774Z,1016.09
2022-09-12T01:03:31.188Z,1016.08
2022-09-12T01:03:40.608Z,1016.04
2022-09-12T01:03:50.028Z,1016.11
2022-09-12T01:03:59.426Z,1016.07
2022-09-12T01:04:08.830Z,1016.07
2022-09-12T01:04:18.260Z,1016.06
2022-09-12T01:04:37.125Z,1016.08
2022-09-12T01:04:46.530Z,1015.99
2022-09-12T01:04:55.914Z,1016.08
2022-09-12T01:05:05.395Z,1016.06
2022-09-12T01:05:14.859Z,1016.11
2022-09-12T01:05:24.294Z,1016.04
2022-09-12T01:05:33.733Z,1016.11
2022-09-12T01:05:43.148Z,1016.11
2022-09-12T01:05:52.559Z,1016.08
2022-09-12T01:06:01.976Z,1016.07
2022-09-12T01:06:11.420Z,1016.11
2022-09-12T01:06:20.839Z,1016.14
2022-09-12T01:06:30.271Z,1016.08
2022-09-12T01:06:39.705Z,1016.11
2022-09-12T01:06:49.096Z,1016.08
2022-09-12T01:06:58.506Z,1016.05
2022-09-12T01:07:07.926Z,1016.11
2022-09-12T01:07:26.765Z,1016.08
2022-09-12T01:07:39.869Z,1016.07
2022-09-12T01:07:45.613Z,1016.06
2022-09-12T01:07:55.059Z,1016.03
2022-09-12T01:08:04.450Z,1016.07
2022-09-12T01:08:13.858Z,1016.07
2022-09-12T01:08:23.305Z,1016.09
2022-09-12T01:08:32.746Z,1016.02
2022-09-12T01:08:42.202Z,1016.07
2022-09-12T01:08:51.554Z,1016.01
2022-09-12T01:09:00.980Z,1016.10
2022-09-12T01:09:10.396Z,1016.06
2022-09-12T01:09:19.832Z,1016.11
2022-09-12T01:09:29.238Z,1016.07
2022-09-12T01:09:38.664Z,1016.10
2022-09-12T01:09:48.101Z,1016.04
2022-09-12T01:10:06.920Z,1016.03
2022-09-12T01:10:16.322Z,1016.08
2022-09-12T01:10:25.729Z,1016.02
2022-09-12T01:10:35.137Z,1016.00
2022-09-12T01:10:44.553Z,1016.05
2022-09-12T01:10:53.968Z,1016.14
2022-09-12T01:11:03.365Z,1016.06
2022-09-12T01:11:12.777Z,1016.03
2022-09-12T01:11:22.187Z,1016.04
2022-09-12T01:11:31.654Z,1016.07
2022-09-12T01:11:41.060Z,1016.01
2022-09-12T01:11:50.458Z,1016.06
2022-09-12T01:11:59.852Z,1016.03
2022-09-12T01:12:09.270Z,1016.11
2022-09-12T01:12:18.696Z,1016.05
2022-09-12T01:12:28.110Z,1015.99
2022-09-12T01:12:46.973Z,1016.01
2022-09-12T01:12:56.415Z,1016.04
2022-09-12T01:13:05.836Z,1016.06
2022-09-12T01:13:15.306Z,1016.06
2022-09-12T01:13:24.719Z,1016.02
2022-09-12T01:13:34.153Z,1016.04
2022-09-12T01:13:43.602Z,1016.03
2022-09-12T01:13:53.016Z,1016.02
2022-09-12T01:14:02.426Z,1016.03
2022-09-12T01:14:11.849Z,1016.03
2022-09-12T01:14:22.723Z,1016.01
2022-09-12T01:14:32.140Z,1016.01
2022-09-12T01:14:41.543Z,1016.03
2022-09-12T01:14:50.948Z,1015.99
2022-09-12T01:15:00.374Z,1016.00
2022-09-12T01:15:09.788Z,1016.07
2022-09-12T01:15:19.200Z,1016.03
2022-09-12T01:15:28.607Z,1016.10
2022-09-12T01:15:38.016Z,1016.02
2022-09-12T01:15:56.828Z,1015.97
2022-09-12T01:16:06.298Z,1016.01
2022-09-12T01:16:15.703Z,1016.05
2022-09-12T01:16:25.077Z,1016.00
2022-09-12T01:16:34.502Z,1016.01
2022-09-12T01:16:43.924Z,1016.01
2022-09-12T01:16:53.297Z,1016.04
2022-09-12T01:17:02.710Z,1016.03
2022-09-12T01:17:12.108Z,1015.97
2022-09-12T01:17:21.509Z,1016.02
2022-09-12T01:17:30.935Z,1016.03
2022-09-12T01:17:40.338Z,1016.01
2022-09-12T01:17:49.754Z,1016.01
2022-09-12T01:17:59.198Z,1016.02
2022-09-12T01:18:08.604Z,1015.96
2022-09-12T01:18:18.018Z,1016.05
2022-09-12T01:18:36.810Z,1016.06
2022-09-12T01:18:46.310Z,1016.01
2022-09-12T01:18:55.632Z,1016.05
2022-09-12T01:19:05.037Z,1015.99
2022-09-12T01:19:14.468Z,1016.05
2022-09-12T01:19:23.903Z,1016.07
2022-09-12T01:19:33.302Z,1016.01
2022-09-12T01:19:42.712Z,1016.02
2022-09-12T01:19:52.115Z,1016.03
2022-09-12T01:20:01.547Z,1016.13
2022-09-12T01:20:10.984Z,1015.95
2022-09-12T01:20:20.380Z,1016.00
2022-09-12T01:20:29.774Z,1015.98
2022-09-12T01:20:39.181Z,1016.00
2022-09-12T01:20:48.595Z,1016.01
2022-09-12T01:20:58.003Z,1016.00
2022-09-12T01:21:16.799Z,1016.05
2022-09-12T01:21:26.212Z,1016.03
2022-09-12T01:21:35.618Z,1016.05
2022-09-12T01:21:45.019Z,1016.04
2022-09-12T01:21:54.428Z,1016.01
2022-09-12T01:22:03.847Z,1016.06
2022-09-12T01:22:13.251Z,1015.96
2022-09-12T01:22:22.648Z,1015.99
2022-09-12T01:22:32.061Z,1016.02
2022-09-12T01:22:41.449Z,1016.01
2022-09-12T01:22:50.855Z,1016.00
2022-09-12T01:23:00.278Z,1015.97
2022-09-12T01:23:09.654Z,1016.01
2022-09-12T01:23:19.058Z,1015.98
2022-09-12T01:23:28.459Z,1016.01
2022-09-12T01:23:47.357Z,1015.97
2022-09-12T01:23:56.760Z,1015.97
2022-09-12T01:24:06.159Z,1015.97
2022-09-12T01:24:15.597Z,1015.95
2022-09-12T01:24:25.020Z,1015.94
2022-09-12T01:24:34.431Z,1015.92
2022-09-12T01:24:43.839Z,1015.94
2022-09-12T01:24:53.278Z,1015.94
2022-09-12T01:25:02.694Z,1016.00
2022-09-12T01:25:12.093Z,1015.90
2022-09-12T01:25:21.490Z,1015.93
2022-09-12T01:25:30.902Z,1015.91
2022-09-12T01:25:40.307Z,1015.94
2022-09-12T01:25:49.726Z,1015.98
2022-09-12T01:25:59.138Z,1015.92
2022-09-12T01:26:08.544Z,1015.92
2022-09-12T01:26:17.944Z,1015.94
2022-09-12T01:26:36.773Z,1015.93
2022-09-12T01:26:46.156Z,1015.90
2022-09-12T01:26:55.566Z,1015.89
2022-09-12T01:27:04.963Z,1015.94
2022-09-12T01:27:14.352Z,1015.94
2022-09-12T01:27:23.749Z,1015.95
2022-09-12T01:27:33.148Z,1015.89
2022-09-12T01:27:42.572Z,1015.81
2022-09-12T01:27:51.973Z,1015.91
2022-09-12T01:28:01.406Z,1015.90
2022-09-12T01:28:10.817Z,1015.90
2022-09-12T01:28:20.225Z,1015.95
2022-09-12T01:28:29.640Z,1015.85
2022-09-12T01:28:39.055Z,1015.95
2022-09-12T01:28:48.463Z,1015.92
2022-09-12T01:29:07.349Z,1015.97
2022-09-12T01:29:16.749Z,1015.90
2022-09-12T01:29:58.288Z,1015.85
2022-09-12T01:30:07.692Z,1015.90
2022-09-12T01:30:17.123Z,1015.97
2022-09-12T01:30:26.580Z,1015.90
2022-09-12T01:30:36.001Z,1015.89
2022-09-12T01:30:45.414Z,1015.93
2022-09-12T01:30:54.833Z,1015.91
2022-09-12T01:31:04.258Z,1015.89
2022-09-12T01:31:13.666Z,1015.91
2022-09-12T01:31:23.078Z,1015.90
2022-09-12T01:31:32.528Z,1015.98
2022-09-12T01:31:41.944Z,1015.84
2022-09-12T01:31:51.483Z,1015.82
2022-09-12T01:32:00.857Z,1015.89
2022-09-12T01:32:10.262Z,1015.85
2022-09-12T01:32:19.769Z,1015.84
2022-09-12T01:32:29.091Z,1015.88
2022-09-12T01:32:38.480Z,1015.85
2022-09-12T01:32:47.886Z,1015.86
2022-09-12T01:32:57.298Z,1015.94
2022-09-12T01:33:06.743Z,1015.96
2022-09-12T01:33:16.144Z,1015.95
2022-09-12T01:33:25.554Z,1015.97
2022-09-12T01:33:34.950Z,1015.89
2022-09-12T01:33:44.398Z,1015.87
2022-09-12T01:33:53.898Z,1015.91
2022-09-12T01:34:03.307Z,1015.96
2022-09-12T01:34:12.742Z,1015.93
2022-09-12T01:34:22.157Z,1015.95
2022-09-12T01:34:31.562Z,1016.01
2022-09-12T01:34:40.974Z,1015.94
2022-09-12T01:34:50.394Z,1015.94
2022-09-12T01:34:59.786Z,1015.93
2022-09-12T01:35:09.195Z,1015.93
2022-09-12T01:35:18.620Z,1015.97
2022-09-12T01:35:28.044Z,1015.93
2022-09-12T01:35:37.463Z,1015.92
2022-09-12T01:35:46.940Z,1015.99
2022-09-12T01:35:56.362Z,1015.94
2022-09-12T01:36:05.775Z,1015.99
2022-09-12T01:36:15.192Z,1015.94
2022-09-12T01:36:24.633Z,1015.89
2022-09-12T01:36:34.037Z,1015.90
2022-09-12T01:36:43.454Z,1015.91
2022-09-12T01:36:52.889Z,1015.93
2022-09-12T01:37:02.274Z,1016.00
2022-09-12T01:37:11.692Z,1015.95
2022-09-12T01:37:21.110Z,1015.97
2022-09-12T01:37:30.499Z,1015.98
2022-09-12T01:37:39.921Z,1015.95
2022-09-12T01:37:49.330Z,1015.97
2022-09-12T01:37:58.771Z,1015.98
2022-09-12T01:38:08.226Z,1016.00
2022-09-12T01:38:27.023Z,1015.98
2022-09-12T01:38:36.434Z,1015.96
2022-09-12T01:38:45.962Z,1015.99
2022-09-12T01:38:55.310Z,1015.98
2022-09-12T01:39:04.730Z,1015.95
2022-09-12T01:39:14.148Z,1015.96
2022-09-12T01:39:23.602Z,1016.04
2022-09-12T01:39:33.002Z,1016.05
2022-09-12T01:39:42.428Z,1016.02
2022-09-12T01:39:51.877Z,1016.00
2022-09-12T01:40:01.255Z,1015.98
2022-09-12T01:40:10.671Z,1015.95
2022-09-12T01:40:19.998Z,1016.03
2022-09-12T01:40:29.423Z,1015.97
2022-09-12T01:40:38.851Z,1016.01
2022-09-12T01:40:48.261Z,1015.99
2022-09-12T01:41:07.099Z,1015.95
2022-09-12T01:41:16.537Z,1015.93
2022-09-12T01:41:25.944Z,1015.98
2022-09-12T01:41:35.354Z,1016.02
2022-09-12T01:41:44.776Z,1016.00
2022-09-12T01:41:54.187Z,1015.97
2022-09-12T01:42:03.598Z,1015.98
2022-09-12T01:42:13.021Z,1015.96
2022-09-12T01:42:22.424Z,1016.02
2022-09-12T01:42:31.840Z,1015.90
2022-09-12T01:42:41.330Z,1016.02
2022-09-12T01:42:50.740Z,1015.97
2022-09-12T01:43:00.152Z,1015.95
2022-09-12T01:43:09.582Z,1015.94
2022-09-12T01:43:19.006Z,1015.92
2022-09-12T01:43:28.425Z,1015.97
2022-09-12T01:43:47.252Z,1015.93
2022-09-12T01:43:56.662Z,1015.93
2022-09-12T01:44:06.075Z,1015.97
2022-09-12T01:44:15.493Z,1015.94
2022-09-12T01:44:24.938Z,1015.95
2022-09-12T01:44:34.368Z,1015.91
2022-09-12T01:44:43.776Z,1015.93
2022-09-12T01:44:53.181Z,1015.90
2022-09-12T01:45:02.597Z,1015.93
2022-09-12T01:45:12.020Z,1015.91
2022-09-12T01:45:21.488Z,1015.97
2022-09-12T01:45:30.994Z,1015.94
2022-09-12T01:45:40.412Z,1015.97
2022-09-12T01:45:49.802Z,1015.88
2022-09-12T01:45:59.246Z,1015.84
2022-09-12T01:46:08.633Z,1015.90
2022-09-12T01:46:18.024Z,1015.93
2022-09-12T01:46:36.899Z,1015.87
2022-09-12T01:46:46.328Z,1015.89
2022-09-12T01:46:55.738Z,1015.92
2022-09-12T01:47:05.144Z,1015.93
2022-09-12T01:47:14.557Z,1015.90
2022-09-12T01:47:23.976Z,1015.89
2022-09-12T01:47:33.373Z,1015.92
2022-09-12T01:47:42.779Z,1015.91
2022-09-12T01:47:52.182Z,1015.91
2022-09-12T01:48:01.599Z,1015.91
2022-09-12T01:48:11.016Z,1015.88
2022-09-12T01:48:20.433Z,1015.89
2022-09-12T01:48:29.854Z,1015.91
2022-09-12T01:48:39.275Z,1015.91
2022-09-12T01:48:48.694Z,1015.95
2022-09-12T01:48:58.109Z,1015.99
2022-09-12T01:49:16.963Z,1015.90
2022-09-12T01:49:26.418Z,1016.00
2022-09-12T01:49:35.831Z,1015.97
2022-09-12T01:49:45.261Z,1015.90
2022-09-12T01:49:54.677Z,1016.00
2022-09-12T01:50:04.098Z,1015.88
2022-09-12T01:50:13.520Z,1015.97
2022-09-12T01:50:22.948Z,1015.93
2022-09-12T01:50:32.358Z,1015.97
2022-09-12T01:50:41.780Z,1015.92
2022-09-12T01:50:51.201Z,1015.96
2022-09-12T01:51:00.619Z,1015.92
2022-09-12T01:51:10.038Z,1015.95
2022-09-12T01:51:19.600Z,1015.97
2022-09-12T01:51:29.018Z,1015.97
2022-09-12T01:51:38.440Z,1015.93
2022-09-12T01:51:57.281Z,1015.97
2022-09-12T01:52:06.685Z,1015.95
2022-09-12T01:52:16.108Z,1015.90
2022-09-12T01:52:25.538Z,1015.95
2022-09-12T01:52:34.912Z,1015.91
2022-09-12T01:52:44.321Z,1016.03
2022-09-12T01:52:53.748Z,1015.98
2022-09-12T01:53:03.127Z,1015.97
2022-09-12T01:53:12.552Z,1015.96
2022-09-12T01:53:21.935Z,1016.00
2022-09-12T01:53:31.375Z,1016.00
2022-09-12T01:53:40.784Z,1015.97
2022-09-12T01:53:50.200Z,1015.98
2022-09-12T01:53:59.616Z,1016.03
2022-09-12T01:54:09.038Z,1015.98
2022-09-12T01:54:18.459Z,1015.97
2022-09-12T01:54:28.100Z,1016.01
2022-09-12T01:54:46.935Z,1015.93
2022-09-12T01:54:56.373Z,1015.94
2022-09-12T01:55:09.579Z,1015.99
2022-09-12T01:55:15.226Z,1016.01
2022-09-12T01:55:24.669Z,1015.97
2022-09-12T01:55:34.074Z,1016.02
2022-09-12T01:55:43.493Z,1016.02
2022-09-12T01:55:52.917Z,1015.99
2022-09-12T01:56:02.325Z,1016.00
2022-09-12T01:56:11.748Z,1015.94
2022-09-12T01:56:21.196Z,1016.01
2022-09-12T01:56:30.599Z,1015.95
2022-09-12T01:56:40.014Z,1016.01
2022-09-12T01:56:49.414Z,1016.02
2022-09-12T01:56:58.821Z,1016.06
2022-09-12T01:57:08.243Z,1016.01
2022-09-12T01:57:27.076Z,1015.99
2022-09-12T01:57:36.521Z,1015.99
2022-09-12T01:57:45.930Z,1016.03
2022-09-12T01:57:55.356Z,1015.97
2022-09-12T01:58:04.771Z,1016.00
2022-09-12T01:58:14.189Z,1015.99
2022-09-12T01:58:23.607Z,1015.99
2022-09-12T01:58:33.069Z,1016.01
2022-09-12T01:58:42.482Z,1016.08
2022-09-12T01:58:51.944Z,1015.97
2022-09-12T01:59:01.459Z,1015.99
2022-09-12T01:59:10.858Z,1016.00
2022-09-12T01:59:20.267Z,1016.02
2022-09-12T01:59:29.736Z,1015.99
2022-09-12T01:59:39.134Z,1015.98
2022-09-12T01:59:48.527Z,1016.01
2022-09-12T01:59:57.952Z,1016.01
2022-09-12T02:00:16.810Z,1015.97
2022-09-12T02:00:26.220Z,1015.88
2022-09-12T02:00:35.646Z,1015.96
2022-09-12T02:00:45.115Z,1016.00
2022-09-12T02:00:54.516Z,1015.95
2022-09-12T02:01:04.218Z,1015.97